sensor_id;sensor_type;location;lat;lon;timestamp;P1;durP1;ratioP1;P2;durP2;ratioP2
8331;SDS011;4203;48.144;14.118;2023-06-26T00:02:22;14.98;;;11.25;;
8331;SDS011;4203;48.144;14.118;2023-06-26T00:04:49;13.30;;;11.35;;
8331;SDS011;4203;48.144;14.118;2023-06-26T00:07:18;11.88;;;10.50;;
8331;SDS011;4203;48.144;14.118;2023-06-26T00:09:46;14.88;;;11.05;;
8331;SDS011;4203;48.144;14.118;2023-06-26T00:12:13;12.63;;;11.32;;
8331;SDS011;4203;48.144;14.118;2023-06-26T00:14:40;13.43;;;10.88;;
8331;SDS011;4203;48.144;14.118;2023-06-26T00:17:09;13.88;;;10.65;;
8331;SDS011;4203;48.144;14.118;2023-06-26T00:19:37;15.38;;;10.80;;
8331;SDS011;4203;48.144;14.118;2023-06-26T00:22:04;12.00;;;10.80;;
8331;SDS011;4203;48.144;14.118;2023-06-26T00:24:32;11.88;;;10.50;;
8331;SDS011;4203;48.144;14.118;2023-06-26T00:26:59;15.55;;;11.48;;
8331;SDS011;4203;48.144;14.118;2023-06-26T00:29:26;18.35;;;10.68;;
8331;SDS011;4203;48.144;14.118;2023-06-26T00:31:53;13.25;;;10.35;;
8331;SDS011;4203;48.144;14.118;2023-06-26T00:34:22;15.48;;;9.85;;
8331;SDS011;4203;48.144;14.118;2023-06-26T00:36:49;15.65;;;10.77;;
8331;SDS011;4203;48.144;14.118;2023-06-26T00:39:17;20.98;;;10.82;;
8331;SDS011;4203;48.144;14.118;2023-06-26T00:41:44;17.17;;;11.40;;
8331;SDS011;4203;48.144;14.118;2023-06-26T00:44:11;19.38;;;10.98;;
8331;SDS011;4203;48.144;14.118;2023-06-26T00:46:38;17.67;;;10.20;;
8331;SDS011;4203;48.144;14.118;2023-06-26T00:49:06;14.85;;;9.98;;
8331;SDS011;4203;48.144;14.118;2023-06-26T00:51:34;10.45;;;9.43;;
8331;SDS011;4203;48.144;14.118;2023-06-26T00:54:02;29.33;;;10.68;;
8331;SDS011;4203;48.144;14.118;2023-06-26T00:56:30;26.13;;;10.10;;
8331;SDS011;4203;48.144;14.118;2023-06-26T00:58:58;20.08;;;9.70;;
8331;SDS011;4203;48.144;14.118;2023-06-26T01:01:25;19.75;;;10.25;;
8331;SDS011;4203;48.144;14.118;2023-06-26T01:03:53;24.77;;;10.07;;
8331;SDS011;4203;48.144;14.118;2023-06-26T01:06:21;19.45;;;9.80;;
8331;SDS011;4203;48.144;14.118;2023-06-26T01:08:51;23.63;;;10.25;;
8331;SDS011;4203;48.144;14.118;2023-06-26T01:11:19;15.00;;;9.63;;
8331;SDS011;4203;48.144;14.118;2023-06-26T01:13:46;25.05;;;10.25;;
8331;SDS011;4203;48.144;14.118;2023-06-26T01:16:15;22.55;;;9.70;;
8331;SDS011;4203;48.144;14.118;2023-06-26T01:18:45;20.52;;;10.02;;
8331;SDS011;4203;48.144;14.118;2023-06-26T01:21:14;20.23;;;10.48;;
8331;SDS011;4203;48.144;14.118;2023-06-26T01:23:46;20.25;;;10.25;;
8331;SDS011;4203;48.144;14.118;2023-06-26T01:26:23;16.15;;;9.90;;
8331;SDS011;4203;48.144;14.118;2023-06-26T01:28:53;14.38;;;9.45;;
8331;SDS011;4203;48.144;14.118;2023-06-26T01:31:25;12.20;;;9.75;;
8331;SDS011;4203;48.144;14.118;2023-06-26T01:33:55;14.10;;;9.88;;
8331;SDS011;4203;48.144;14.118;2023-06-26T01:36:25;23.40;;;10.70;;
8331;SDS011;4203;48.144;14.118;2023-06-26T01:38:53;17.70;;;9.35;;
8331;SDS011;4203;48.144;14.118;2023-06-26T01:41:20;18.20;;;9.95;;
8331;SDS011;4203;48.144;14.118;2023-06-26T01:43:57;16.50;;;9.32;;
8331;SDS011;4203;48.144;14.118;2023-06-26T01:46:35;14.75;;;9.82;;
8331;SDS011;4203;48.144;14.118;2023-06-26T01:49:07;16.70;;;9.18;;
8331;SDS011;4203;48.144;14.118;2023-06-26T01:51:42;19.25;;;10.20;;
8331;SDS011;4203;48.144;14.118;2023-06-26T01:54:16;17.27;;;9.60;;
8331;SDS011;4203;48.144;14.118;2023-06-26T01:56:49;16.55;;;9.98;;
8331;SDS011;4203;48.144;14.118;2023-06-26T01:59:20;11.20;;;9.70;;
8331;SDS011;4203;48.144;14.118;2023-06-26T02:01:48;12.13;;;9.90;;
8331;SDS011;4203;48.144;14.118;2023-06-26T02:04:16;13.38;;;9.90;;
8331;SDS011;4203;48.144;14.118;2023-06-26T02:06:43;14.98;;;9.55;;
8331;SDS011;4203;48.144;14.118;2023-06-26T02:09:10;11.60;;;10.27;;
8331;SDS011;4203;48.144;14.118;2023-06-26T02:11:38;15.18;;;10.82;;
8331;SDS011;4203;48.144;14.118;2023-06-26T02:14:05;15.73;;;10.93;;
8331;SDS011;4203;48.144;14.118;2023-06-26T02:16:35;11.55;;;10.35;;
8331;SDS011;4203;48.144;14.118;2023-06-26T02:19:03;16.60;;;10.43;;
8331;SDS011;4203;48.144;14.118;2023-06-26T02:21:30;11.32;;;9.82;;
8331;SDS011;4203;48.144;14.118;2023-06-26T02:23:57;15.43;;;10.57;;
8331;SDS011;4203;48.144;14.118;2023-06-26T02:26:24;12.90;;;10.35;;
8331;SDS011;4203;48.144;14.118;2023-06-26T02:28:53;12.32;;;10.65;;
8331;SDS011;4203;48.144;14.118;2023-06-26T02:31:20;14.13;;;10.90;;
8331;SDS011;4203;48.144;14.118;2023-06-26T02:33:49;14.93;;;11.52;;
8331;SDS011;4203;48.144;14.118;2023-06-26T02:36:16;16.48;;;10.43;;
8331;SDS011;4203;48.144;14.118;2023-06-26T02:38:43;11.90;;;10.20;;
8331;SDS011;4203;48.144;14.118;2023-06-26T02:41:10;16.38;;;10.77;;
8331;SDS011;4203;48.144;14.118;2023-06-26T02:43:38;10.88;;;9.77;;
8331;SDS011;4203;48.144;14.118;2023-06-26T02:46:05;14.82;;;11.18;;
8331;SDS011;4203;48.144;14.118;2023-06-26T02:48:32;13.25;;;10.20;;
8331;SDS011;4203;48.144;14.118;2023-06-26T02:51:01;13.18;;;10.30;;
8331;SDS011;4203;48.144;14.118;2023-06-26T02:53:28;14.50;;;10.35;;
8331;SDS011;4203;48.144;14.118;2023-06-26T02:55:56;17.92;;;10.63;;
8331;SDS011;4203;48.144;14.118;2023-06-26T02:58:23;15.75;;;11.05;;
8331;SDS011;4203;48.144;14.118;2023-06-26T03:00:50;18.02;;;10.48;;
8331;SDS011;4203;48.144;14.118;2023-06-26T03:03:19;11.05;;;9.93;;
8331;SDS011;4203;48.144;14.118;2023-06-26T03:05:47;19.25;;;9.75;;
8331;SDS011;4203;48.144;14.118;2023-06-26T03:08:15;17.25;;;9.73;;
8331;SDS011;4203;48.144;14.118;2023-06-26T03:10:43;12.98;;;10.18;;
8331;SDS011;4203;48.144;14.118;2023-06-26T03:13:10;13.18;;;9.38;;
8331;SDS011;4203;48.144;14.118;2023-06-26T03:15:37;12.05;;;10.07;;
8331;SDS011;4203;48.144;14.118;2023-06-26T03:18:04;12.65;;;9.65;;
8331;SDS011;4203;48.144;14.118;2023-06-26T03:20:31;14.10;;;9.20;;
8331;SDS011;4203;48.144;14.118;2023-06-26T03:22:59;14.63;;;8.68;;
8331;SDS011;4203;48.144;14.118;2023-06-26T03:25:27;14.57;;;9.60;;
8331;SDS011;4203;48.144;14.118;2023-06-26T03:27:55;17.25;;;9.18;;
8331;SDS011;4203;48.144;14.118;2023-06-26T03:30:22;18.38;;;9.27;;
8331;SDS011;4203;48.144;14.118;2023-06-26T03:32:49;14.95;;;9.38;;
8331;SDS011;4203;48.144;14.118;2023-06-26T03:35:16;13.23;;;9.07;;
8331;SDS011;4203;48.144;14.118;2023-06-26T03:37:44;17.13;;;9.00;;
8331;SDS011;4203;48.144;14.118;2023-06-26T03:40:11;17.15;;;9.68;;
8331;SDS011;4203;48.144;14.118;2023-06-26T03:42:40;17.10;;;9.52;;
8331;SDS011;4203;48.144;14.118;2023-06-26T03:45:07;15.05;;;9.52;;
8331;SDS011;4203;48.144;14.118;2023-06-26T03:47:35;12.32;;;9.38;;
8331;SDS011;4203;48.144;14.118;2023-06-26T03:50:02;13.52;;;9.77;;
8331;SDS011;4203;48.144;14.118;2023-06-26T03:52:30;13.35;;;9.25;;
8331;SDS011;4203;48.144;14.118;2023-06-26T03:54:57;12.88;;;8.77;;
8331;SDS011;4203;48.144;14.118;2023-06-26T03:57:25;12.30;;;8.93;;
8331;SDS011;4203;48.144;14.118;2023-06-26T03:59:53;12.50;;;9.20;;
8331;SDS011;4203;48.144;14.118;2023-06-26T04:02:21;18.55;;;10.88;;
8331;SDS011;4203;48.144;14.118;2023-06-26T04:04:48;15.20;;;10.32;;
8331;SDS011;4203;48.144;14.118;2023-06-26T04:07:15;16.45;;;10.77;;
8331;SDS011;4203;48.144;14.118;2023-06-26T04:09:42;14.98;;;11.05;;
8331;SDS011;4203;48.144;14.118;2023-06-26T04:12:10;13.18;;;9.82;;
8331;SDS011;4203;48.144;14.118;2023-06-26T04:14:37;12.48;;;9.52;;
8331;SDS011;4203;48.144;14.118;2023-06-26T04:17:06;13.50;;;10.23;;
8331;SDS011;4203;48.144;14.118;2023-06-26T04:19:33;14.32;;;11.23;;
8331;SDS011;4203;48.144;14.118;2023-06-26T04:22:01;13.55;;;11.32;;
8331;SDS011;4203;48.144;14.118;2023-06-26T04:24:29;17.70;;;10.60;;
8331;SDS011;4203;48.144;14.118;2023-06-26T04:26:56;17.33;;;11.88;;
8331;SDS011;4203;48.144;14.118;2023-06-26T04:29:25;13.07;;;10.60;;
8331;SDS011;4203;48.144;14.118;2023-06-26T04:31:52;16.02;;;10.20;;
8331;SDS011;4203;48.144;14.118;2023-06-26T04:34:25;11.88;;;10.68;;
8331;SDS011;4203;48.144;14.118;2023-06-26T04:36:53;10.85;;;9.40;;
8331;SDS011;4203;48.144;14.118;2023-06-26T04:39:20;17.98;;;11.27;;
8331;SDS011;4203;48.144;14.118;2023-06-26T04:41:48;15.15;;;9.98;;
8331;SDS011;4203;48.144;14.118;2023-06-26T04:44:15;11.23;;;10.00;;
8331;SDS011;4203;48.144;14.118;2023-06-26T04:46:42;13.15;;;9.10;;
8331;SDS011;4203;48.144;14.118;2023-06-26T04:49:10;10.82;;;9.73;;
8331;SDS011;4203;48.144;14.118;2023-06-26T04:51:39;11.82;;;9.43;;
8331;SDS011;4203;48.144;14.118;2023-06-26T04:54:06;10.65;;;9.55;;
8331;SDS011;4203;48.144;14.118;2023-06-26T04:56:34;9.85;;;8.88;;
8331;SDS011;4203;48.144;14.118;2023-06-26T04:59:02;10.45;;;8.63;;
8331;SDS011;4203;48.144;14.118;2023-06-26T05:01:29;10.75;;;8.95;;
8331;SDS011;4203;48.144;14.118;2023-06-26T05:03:57;9.43;;;7.57;;
8331;SDS011;4203;48.144;14.118;2023-06-26T05:06:24;9.57;;;8.63;;
8331;SDS011;4203;48.144;14.118;2023-06-26T05:08:53;9.02;;;8.13;;
8331;SDS011;4203;48.144;14.118;2023-06-26T05:11:20;11.38;;;8.50;;
8331;SDS011;4203;48.144;14.118;2023-06-26T05:13:48;10.27;;;8.27;;
8331;SDS011;4203;48.144;14.118;2023-06-26T05:16:15;10.45;;;8.70;;
8331;SDS011;4203;48.144;14.118;2023-06-26T05:18:43;15.63;;;9.10;;
8331;SDS011;4203;48.144;14.118;2023-06-26T05:21:10;8.93;;;8.07;;
8331;SDS011;4203;48.144;14.118;2023-06-26T05:23:38;10.63;;;7.75;;
8331;SDS011;4203;48.144;14.118;2023-06-26T05:26:09;7.47;;;6.78;;
8331;SDS011;4203;48.144;14.118;2023-06-26T05:28:49;8.65;;;7.65;;
8331;SDS011;4203;48.144;14.118;2023-06-26T05:31:17;8.95;;;7.65;;
8331;SDS011;4203;48.144;14.118;2023-06-26T05:33:44;8.13;;;7.32;;
8331;SDS011;4203;48.144;14.118;2023-06-26T05:36:13;8.13;;;7.25;;
8331;SDS011;4203;48.144;14.118;2023-06-26T05:38:43;8.57;;;7.38;;
8331;SDS011;4203;48.144;14.118;2023-06-26T05:41:12;8.95;;;8.15;;
8331;SDS011;4203;48.144;14.118;2023-06-26T05:43:40;9.73;;;7.78;;
8331;SDS011;4203;48.144;14.118;2023-06-26T05:46:07;8.80;;;7.90;;
8331;SDS011;4203;48.144;14.118;2023-06-26T05:48:35;8.80;;;7.85;;
8331;SDS011;4203;48.144;14.118;2023-06-26T05:51:02;8.35;;;7.43;;
8331;SDS011;4203;48.144;14.118;2023-06-26T05:53:30;8.05;;;7.35;;
8331;SDS011;4203;48.144;14.118;2023-06-26T05:55:58;7.72;;;7.05;;
8331;SDS011;4203;48.144;14.118;2023-06-26T05:58:27;9.88;;;7.50;;
8331;SDS011;4203;48.144;14.118;2023-06-26T06:00:56;8.18;;;7.20;;
8331;SDS011;4203;48.144;14.118;2023-06-26T06:03:23;9.20;;;7.25;;
8331;SDS011;4203;48.144;14.118;2023-06-26T06:05:51;7.78;;;7.07;;
8331;SDS011;4203;48.144;14.118;2023-06-26T06:08:18;8.20;;;7.50;;
8331;SDS011;4203;48.144;14.118;2023-06-26T06:10:45;11.05;;;7.90;;
8331;SDS011;4203;48.144;14.118;2023-06-26T06:13:12;7.85;;;7.10;;
8331;SDS011;4203;48.144;14.118;2023-06-26T06:15:41;9.38;;;7.95;;
8331;SDS011;4203;48.144;14.118;2023-06-26T06:18:09;8.13;;;7.32;;
8331;SDS011;4203;48.144;14.118;2023-06-26T06:20:36;8.95;;;8.15;;
8331;SDS011;4203;48.144;14.118;2023-06-26T06:23:03;8.32;;;7.55;;
8331;SDS011;4203;48.144;14.118;2023-06-26T06:25:31;8.10;;;7.30;;
8331;SDS011;4203;48.144;14.118;2023-06-26T06:27:58;11.77;;;7.30;;
8331;SDS011;4203;48.144;14.118;2023-06-26T06:30:26;10.63;;;8.13;;
8331;SDS011;4203;48.144;14.118;2023-06-26T06:32:54;8.38;;;7.68;;
8331;SDS011;4203;48.144;14.118;2023-06-26T06:35:22;8.48;;;7.68;;
8331;SDS011;4203;48.144;14.118;2023-06-26T06:37:49;8.95;;;8.18;;
8331;SDS011;4203;48.144;14.118;2023-06-26T06:40:17;11.98;;;8.05;;
8331;SDS011;4203;48.144;14.118;2023-06-26T06:42:44;9.80;;;8.43;;
8331;SDS011;4203;48.144;14.118;2023-06-26T06:45:11;8.77;;;7.97;;
8331;SDS011;4203;48.144;14.118;2023-06-26T06:47:38;9.18;;;7.82;;
8331;SDS011;4203;48.144;14.118;2023-06-26T06:50:07;9.45;;;8.40;;
8331;SDS011;4203;48.144;14.118;2023-06-26T06:52:35;7.68;;;6.78;;
8331;SDS011;4203;48.144;14.118;2023-06-26T06:55:04;8.65;;;7.72;;
8331;SDS011;4203;48.144;14.118;2023-06-26T06:57:34;10.68;;;7.57;;
8331;SDS011;4203;48.144;14.118;2023-06-26T07:00:03;7.85;;;7.13;;
8331;SDS011;4203;48.144;14.118;2023-06-26T07:02:33;8.30;;;7.50;;
8331;SDS011;4203;48.144;14.118;2023-06-26T07:05:02;8.35;;;7.53;;
8331;SDS011;4203;48.144;14.118;2023-06-26T07:07:32;9.13;;;8.23;;
8331;SDS011;4203;48.144;14.118;2023-06-26T07:10:01;8.50;;;7.70;;
8331;SDS011;4203;48.144;14.118;2023-06-26T07:12:29;11.07;;;7.95;;
8331;SDS011;4203;48.144;14.118;2023-06-26T07:14:56;9.90;;;8.50;;
8331;SDS011;4203;48.144;14.118;2023-06-26T07:17:23;9.27;;;8.38;;
8331;SDS011;4203;48.144;14.118;2023-06-26T07:19:51;9.05;;;7.65;;
8331;SDS011;4203;48.144;14.118;2023-06-26T07:22:18;9.23;;;8.27;;
8331;SDS011;4203;48.144;14.118;2023-06-26T07:24:48;8.82;;;7.93;;
8331;SDS011;4203;48.144;14.118;2023-06-26T07:27:15;8.05;;;7.35;;
8331;SDS011;4203;48.144;14.118;2023-06-26T07:29:43;8.00;;;7.40;;
8331;SDS011;4203;48.144;14.118;2023-06-26T07:32:10;7.38;;;6.68;;
8331;SDS011;4203;48.144;14.118;2023-06-26T07:34:38;8.18;;;7.38;;
8331;SDS011;4203;48.144;14.118;2023-06-26T07:37:05;8.25;;;7.43;;
8331;SDS011;4203;48.144;14.118;2023-06-26T07:39:32;9.07;;;8.10;;
8331;SDS011;4203;48.144;14.118;2023-06-26T07:42:01;7.90;;;7.10;;
8331;SDS011;4203;48.144;14.118;2023-06-26T07:44:28;8.40;;;7.60;;
8331;SDS011;4203;48.144;14.118;2023-06-26T07:46:56;8.32;;;7.53;;
8331;SDS011;4203;48.144;14.118;2023-06-26T07:49:23;8.93;;;8.02;;
8331;SDS011;4203;48.144;14.118;2023-06-26T07:51:50;8.38;;;7.40;;
8331;SDS011;4203;48.144;14.118;2023-06-26T07:54:17;11.32;;;7.88;;
8331;SDS011;4203;48.144;14.118;2023-06-26T07:56:54;10.45;;;7.75;;
8331;SDS011;4203;48.144;14.118;2023-06-26T07:59:25;8.20;;;6.85;;
8331;SDS011;4203;48.144;14.118;2023-06-26T08:01:54;8.25;;;7.50;;
8331;SDS011;4203;48.144;14.118;2023-06-26T08:04:23;7.70;;;7.10;;
8331;SDS011;4203;48.144;14.118;2023-06-26T08:06:51;7.03;;;6.43;;
8331;SDS011;4203;48.144;14.118;2023-06-26T08:09:21;10.80;;;7.85;;
8331;SDS011;4203;48.144;14.118;2023-06-26T08:11:50;8.23;;;6.72;;
8331;SDS011;4203;48.144;14.118;2023-06-26T08:14:17;12.65;;;7.43;;
8331;SDS011;4203;48.144;14.118;2023-06-26T08:16:46;8.10;;;7.38;;
8331;SDS011;4203;48.144;14.118;2023-06-26T08:19:14;9.80;;;7.47;;
8331;SDS011;4203;48.144;14.118;2023-06-26T08:21:42;8.27;;;7.47;;
8331;SDS011;4203;48.144;14.118;2023-06-26T08:24:11;7.85;;;7.13;;
8331;SDS011;4203;48.144;14.118;2023-06-26T08:26:41;8.13;;;7.38;;
8331;SDS011;4203;48.144;14.118;2023-06-26T08:29:08;8.18;;;7.35;;
8331;SDS011;4203;48.144;14.118;2023-06-26T08:31:35;8.13;;;7.32;;
8331;SDS011;4203;48.144;14.118;2023-06-26T08:34:04;7.95;;;6.72;;
8331;SDS011;4203;48.144;14.118;2023-06-26T08:36:32;7.50;;;6.80;;
8331;SDS011;4203;48.144;14.118;2023-06-26T08:39:00;7.55;;;6.85;;
8331;SDS011;4203;48.144;14.118;2023-06-26T08:41:28;7.55;;;6.95;;
8331;SDS011;4203;48.144;14.118;2023-06-26T08:43:55;7.03;;;6.53;;
8331;SDS011;4203;48.144;14.118;2023-06-26T08:46:22;8.40;;;6.90;;
8331;SDS011;4203;48.144;14.118;2023-06-26T08:48:53;7.90;;;7.30;;
8331;SDS011;4203;48.144;14.118;2023-06-26T08:51:24;7.53;;;6.82;;
8331;SDS011;4203;48.144;14.118;2023-06-26T08:53:56;7.95;;;7.20;;
8331;SDS011;4203;48.144;14.118;2023-06-26T08:56:25;7.97;;;7.28;;
8331;SDS011;4203;48.144;14.118;2023-06-26T08:58:56;7.85;;;7.15;;
8331;SDS011;4203;48.144;14.118;2023-06-26T09:01:24;8.07;;;7.15;;
8331;SDS011;4203;48.144;14.118;2023-06-26T09:03:51;8.25;;;7.50;;
8331;SDS011;4203;48.144;14.118;2023-06-26T09:06:19;7.05;;;6.45;;
8331;SDS011;4203;48.144;14.118;2023-06-26T09:08:48;7.28;;;6.57;;
8331;SDS011;4203;48.144;14.118;2023-06-26T09:11:15;7.55;;;6.93;;
8331;SDS011;4203;48.144;14.118;2023-06-26T09:13:43;6.70;;;6.20;;
8331;SDS011;4203;48.144;14.118;2023-06-26T09:16:12;6.70;;;6.10;;
8331;SDS011;4203;48.144;14.118;2023-06-26T09:18:40;6.65;;;6.05;;
8331;SDS011;4203;48.144;14.118;2023-06-26T09:21:08;6.60;;;5.95;;
8331;SDS011;4203;48.144;14.118;2023-06-26T09:23:36;6.97;;;6.47;;
8331;SDS011;4203;48.144;14.118;2023-06-26T09:26:08;7.00;;;6.40;;
8331;SDS011;4203;48.144;14.118;2023-06-26T09:28:35;8.45;;;7.05;;
8331;SDS011;4203;48.144;14.118;2023-06-26T09:31:18;6.53;;;6.05;;
8331;SDS011;4203;48.144;14.118;2023-06-26T09:33:46;7.50;;;6.90;;
8331;SDS011;4203;48.144;14.118;2023-06-26T09:36:18;6.03;;;5.53;;
8331;SDS011;4203;48.144;14.118;2023-06-26T09:38:46;7.40;;;6.70;;
8331;SDS011;4203;48.144;14.118;2023-06-26T09:41:15;6.78;;;6.28;;
8331;SDS011;4203;48.144;14.118;2023-06-26T09:43:47;6.80;;;6.20;;
8331;SDS011;4203;48.144;14.118;2023-06-26T09:46:15;6.70;;;6.15;;
8331;SDS011;4203;48.144;14.118;2023-06-26T09:48:58;7.22;;;6.53;;
8331;SDS011;4203;48.144;14.118;2023-06-26T09:51:28;6.80;;;6.30;;
8331;SDS011;4203;48.144;14.118;2023-06-26T09:53:56;7.13;;;6.53;;
8331;SDS011;4203;48.144;14.118;2023-06-26T09:56:24;6.47;;;5.97;;
8331;SDS011;4203;48.144;14.118;2023-06-26T09:58:51;7.10;;;6.50;;
8331;SDS011;4203;48.144;14.118;2023-06-26T10:01:21;6.47;;;5.97;;
8331;SDS011;4203;48.144;14.118;2023-06-26T10:03:48;6.88;;;6.32;;
8331;SDS011;4203;48.144;14.118;2023-06-26T10:06:17;6.40;;;5.90;;
8331;SDS011;4203;48.144;14.118;2023-06-26T10:08:46;7.10;;;6.40;;
8331;SDS011;4203;48.144;14.118;2023-06-26T10:11:16;6.80;;;6.20;;
8331;SDS011;4203;48.144;14.118;2023-06-26T10:13:47;6.35;;;5.85;;
8331;SDS011;4203;48.144;14.118;2023-06-26T10:16:18;6.18;;;5.78;;
8331;SDS011;4203;48.144;14.118;2023-06-26T10:18:52;6.65;;;6.15;;
8331;SDS011;4203;48.144;14.118;2023-06-26T10:21:22;6.25;;;5.85;;
8331;SDS011;4203;48.144;14.118;2023-06-26T10:23:53;6.78;;;6.28;;
8331;SDS011;4203;48.144;14.118;2023-06-26T10:26:21;6.47;;;5.88;;
8331;SDS011;4203;48.144;14.118;2023-06-26T10:28:48;6.57;;;5.68;;
8331;SDS011;4203;48.144;14.118;2023-06-26T10:31:18;7.15;;;6.55;;
8331;SDS011;4203;48.144;14.118;2023-06-26T10:33:51;7.53;;;6.20;;
8331;SDS011;4203;48.144;14.118;2023-06-26T10:36:20;6.43;;;5.93;;
8331;SDS011;4203;48.144;14.118;2023-06-26T10:38:54;6.40;;;5.88;;
8331;SDS011;4203;48.144;14.118;2023-06-26T10:41:24;6.72;;;6.13;;
8331;SDS011;4203;48.144;14.118;2023-06-26T10:44:05;7.30;;;6.70;;
8331;SDS011;4203;48.144;14.118;2023-06-26T10:46:35;7.07;;;6.45;;
8331;SDS011;4203;48.144;14.118;2023-06-26T10:49:17;7.03;;;6.40;;
8331;SDS011;4203;48.144;14.118;2023-06-26T10:51:46;7.45;;;6.80;;
8331;SDS011;4203;48.144;14.118;2023-06-26T10:54:15;8.50;;;6.25;;
8331;SDS011;4203;48.144;14.118;2023-06-26T10:56:43;6.78;;;6.20;;
8331;SDS011;4203;48.144;14.118;2023-06-26T10:59:13;6.10;;;5.60;;
8331;SDS011;4203;48.144;14.118;2023-06-26T11:01:44;6.38;;;5.50;;
8331;SDS011;4203;48.144;14.118;2023-06-26T11:04:13;6.50;;;6.00;;
8331;SDS011;4203;48.144;14.118;2023-06-26T11:06:43;6.20;;;5.70;;
8331;SDS011;4203;48.144;14.118;2023-06-26T11:09:14;6.30;;;5.80;;
8331;SDS011;4203;48.144;14.118;2023-06-26T11:11:59;5.97;;;5.53;;
8331;SDS011;4203;48.144;14.118;2023-06-26T11:14:32;6.53;;;6.03;;
8331;SDS011;4203;48.144;14.118;2023-06-26T11:17:05;6.07;;;5.68;;
8331;SDS011;4203;48.144;14.118;2023-06-26T11:19:32;6.35;;;5.95;;
8331;SDS011;4203;48.144;14.118;2023-06-26T11:22:01;6.55;;;5.72;;
8331;SDS011;4203;48.144;14.118;2023-06-26T11:24:30;6.22;;;5.72;;
8331;SDS011;4203;48.144;14.118;2023-06-26T11:27:02;6.40;;;5.90;;
8331;SDS011;4203;48.144;14.118;2023-06-26T11:29:31;6.15;;;5.68;;
8331;SDS011;4203;48.144;14.118;2023-06-26T11:32:00;6.28;;;5.72;;
8331;SDS011;4203;48.144;14.118;2023-06-26T11:34:32;6.03;;;5.43;;
8331;SDS011;4203;48.144;14.118;2023-06-26T11:37:00;5.90;;;5.32;;
8331;SDS011;4203;48.144;14.118;2023-06-26T11:39:28;5.88;;;5.38;;
8331;SDS011;4203;48.144;14.118;2023-06-26T11:41:56;5.75;;;5.25;;
8331;SDS011;4203;48.144;14.118;2023-06-26T11:44:24;6.63;;;5.65;;
8331;SDS011;4203;48.144;14.118;2023-06-26T11:46:55;5.75;;;5.35;;
8331;SDS011;4203;48.144;14.118;2023-06-26T11:49:24;5.65;;;5.10;;
8331;SDS011;4203;48.144;14.118;2023-06-26T11:51:53;5.65;;;5.25;;
8331;SDS011;4203;48.144;14.118;2023-06-26T11:54:24;7.90;;;5.90;;
8331;SDS011;4203;48.144;14.118;2023-06-26T11:56:53;5.40;;;5.10;;
8331;SDS011;4203;48.144;14.118;2023-06-26T11:59:22;6.13;;;5.63;;
8331;SDS011;4203;48.144;14.118;2023-06-26T12:01:50;5.43;;;5.03;;
8331;SDS011;4203;48.144;14.118;2023-06-26T12:04:18;5.97;;;5.57;;
8331;SDS011;4203;48.144;14.118;2023-06-26T12:06:47;5.53;;;5.22;;
8331;SDS011;4203;48.144;14.118;2023-06-26T12:09:24;5.65;;;5.22;;
8331;SDS011;4203;48.144;14.118;2023-06-26T12:11:53;5.82;;;5.43;;
8331;SDS011;4203;48.144;14.118;2023-06-26T12:14:22;6.40;;;5.78;;
8331;SDS011;4203;48.144;14.118;2023-06-26T12:16:51;6.05;;;5.65;;
8331;SDS011;4203;48.144;14.118;2023-06-26T12:19:23;5.95;;;5.50;;
8331;SDS011;4203;48.144;14.118;2023-06-26T12:21:52;6.20;;;5.60;;
8331;SDS011;4203;48.144;14.118;2023-06-26T12:24:22;5.57;;;5.25;;
8331;SDS011;4203;48.144;14.118;2023-06-26T12:26:54;5.68;;;5.28;;
8331;SDS011;4203;48.144;14.118;2023-06-26T12:29:28;5.90;;;5.43;;
8331;SDS011;4203;48.144;14.118;2023-06-26T12:31:58;6.07;;;5.57;;
8331;SDS011;4203;48.144;14.118;2023-06-26T12:34:26;6.22;;;5.82;;
8331;SDS011;4203;48.144;14.118;2023-06-26T12:36:59;5.70;;;5.20;;
8331;SDS011;4203;48.144;14.118;2023-06-26T12:39:30;6.20;;;5.60;;
8331;SDS011;4203;48.144;14.118;2023-06-26T12:42:13;5.97;;;5.47;;
8331;SDS011;4203;48.144;14.118;2023-06-26T12:44:41;6.32;;;5.78;;
8331;SDS011;4203;48.144;14.118;2023-06-26T12:47:09;6.22;;;5.72;;
8331;SDS011;4203;48.144;14.118;2023-06-26T12:49:38;6.47;;;5.93;;
8331;SDS011;4203;48.144;14.118;2023-06-26T12:52:07;6.40;;;5.90;;
8331;SDS011;4203;48.144;14.118;2023-06-26T12:54:38;9.18;;;6.28;;
8331;SDS011;4203;48.144;14.118;2023-06-26T12:57:06;6.13;;;5.53;;
8331;SDS011;4203;48.144;14.118;2023-06-26T12:59:35;6.13;;;5.70;;
8331;SDS011;4203;48.144;14.118;2023-06-26T13:02:04;6.63;;;6.13;;
8331;SDS011;4203;48.144;14.118;2023-06-26T13:04:32;6.28;;;5.68;;
8331;SDS011;4203;48.144;14.118;2023-06-26T13:07:00;6.05;;;5.65;;
8331;SDS011;4203;48.144;14.118;2023-06-26T13:09:32;6.15;;;5.57;;
8331;SDS011;4203;48.144;14.118;2023-06-26T13:12:02;6.00;;;5.60;;
8331;SDS011;4203;48.144;14.118;2023-06-26T13:14:30;6.15;;;5.75;;
8331;SDS011;4203;48.144;14.118;2023-06-26T13:16:57;6.65;;;6.00;;
8331;SDS011;4203;48.144;14.118;2023-06-26T13:19:25;5.85;;;5.28;;
8331;SDS011;4203;48.144;14.118;2023-06-26T13:21:52;5.63;;;5.13;;
8331;SDS011;4203;48.144;14.118;2023-06-26T13:24:19;5.65;;;5.25;;
8331;SDS011;4203;48.144;14.118;2023-06-26T13:26:46;6.07;;;5.40;;
8331;SDS011;4203;48.144;14.118;2023-06-26T13:29:15;5.50;;;5.10;;
8331;SDS011;4203;48.144;14.118;2023-06-26T13:31:42;5.43;;;5.03;;
8331;SDS011;4203;48.144;14.118;2023-06-26T13:34:20;5.20;;;4.80;;
8331;SDS011;4203;48.144;14.118;2023-06-26T13:36:49;5.60;;;5.07;;
8331;SDS011;4203;48.144;14.118;2023-06-26T13:39:16;6.53;;;5.93;;
8331;SDS011;4203;48.144;14.118;2023-06-26T13:41:44;5.93;;;5.28;;
8331;SDS011;4203;48.144;14.118;2023-06-26T13:44:11;5.25;;;4.95;;
8331;SDS011;4203;48.144;14.118;2023-06-26T13:46:40;6.95;;;5.10;;
8331;SDS011;4203;48.144;14.118;2023-06-26T13:49:07;5.13;;;4.68;;
8331;SDS011;4203;48.144;14.118;2023-06-26T13:51:34;5.40;;;4.90;;
8331;SDS011;4203;48.144;14.118;2023-06-26T13:54:04;5.35;;;4.85;;
8331;SDS011;4203;48.144;14.118;2023-06-26T13:56:33;5.00;;;4.60;;
8331;SDS011;4203;48.144;14.118;2023-06-26T13:59:02;5.78;;;5.38;;
8331;SDS011;4203;48.144;14.118;2023-06-26T14:01:30;5.07;;;4.68;;
8331;SDS011;4203;48.144;14.118;2023-06-26T14:03:59;5.68;;;5.28;;
8331;SDS011;4203;48.144;14.118;2023-06-26T14:06:26;5.60;;;5.13;;
8331;SDS011;4203;48.144;14.118;2023-06-26T14:08:55;5.07;;;4.78;;
8331;SDS011;4203;48.144;14.118;2023-06-26T14:11:22;5.68;;;5.20;;
8331;SDS011;4203;48.144;14.118;2023-06-26T14:13:50;5.57;;;5.07;;
8331;SDS011;4203;48.144;14.118;2023-06-26T14:16:17;5.53;;;4.97;;
8331;SDS011;4203;48.144;14.118;2023-06-26T14:18:46;5.80;;;5.40;;
8331;SDS011;4203;48.144;14.118;2023-06-26T14:21:15;7.57;;;5.15;;
8331;SDS011;4203;48.144;14.118;2023-06-26T14:23:42;5.57;;;5.18;;
8331;SDS011;4203;48.144;14.118;2023-06-26T14:26:09;5.20;;;4.80;;
8331;SDS011;4203;48.144;14.118;2023-06-26T14:28:37;5.45;;;4.95;;
8331;SDS011;4203;48.144;14.118;2023-06-26T14:31:05;5.60;;;4.75;;
8331;SDS011;4203;48.144;14.118;2023-06-26T14:33:32;4.80;;;4.50;;
8331;SDS011;4203;48.144;14.118;2023-06-26T14:35:59;5.95;;;5.55;;
8331;SDS011;4203;48.144;14.118;2023-06-26T14:38:28;5.65;;;5.07;;
8331;SDS011;4203;48.144;14.118;2023-06-26T14:40:55;5.15;;;4.65;;
8331;SDS011;4203;48.144;14.118;2023-06-26T14:43:22;5.47;;;5.07;;
8331;SDS011;4203;48.144;14.118;2023-06-26T14:45:50;5.78;;;5.28;;
8331;SDS011;4203;48.144;14.118;2023-06-26T14:48:17;5.53;;;5.03;;
8331;SDS011;4203;48.144;14.118;2023-06-26T14:50:45;5.70;;;5.20;;
8331;SDS011;4203;48.144;14.118;2023-06-26T14:53:12;5.93;;;5.10;;
8331;SDS011;4203;48.144;14.118;2023-06-26T14:55:41;5.80;;;5.40;;
8331;SDS011;4203;48.144;14.118;2023-06-26T14:58:08;5.03;;;4.70;;
8331;SDS011;4203;48.144;14.118;2023-06-26T15:00:35;5.65;;;5.15;;
8331;SDS011;4203;48.144;14.118;2023-06-26T15:03:03;6.00;;;5.50;;